createdAt,value
2022-07-30T10:53:04.983Z,315.00
2022-07-30T10:54:04.940Z,315.00
2022-07-30T10:55:05.064Z,315.00
2022-07-30T10:56:05.017Z,315.00
2022-07-30T10:57:05.099Z,315.00
2022-07-30T10:58:47.359Z,343.83
2022-07-30T10:59:44.511Z,77.01
2022-07-30T11:01:46.432Z,112.24
2022-07-30T11:02:44.525Z,101.33
2022-07-30T11:03:44.804Z,90.00
2022-07-30T11:04:44.734Z,90.00
2022-07-30T11:05:45.490Z,90.00
2022-07-30T11:06:44.501Z,90.00
2022-07-30T11:07:44.441Z,90.00
2022-07-30T11:08:44.606Z,110.99
2022-07-30T11:09:44.765Z,101.89
2022-07-30T11:10:44.557Z,90.00
2022-07-30T11:12:04.905Z,22.27
2022-07-30T11:12:44.800Z,85.87
2022-07-30T11:13:45.758Z,90.00
2022-07-30T11:14:44.557Z,90.00
2022-07-30T11:15:44.623Z,90.00
2022-07-30T11:16:44.599Z,90.00
2022-07-30T11:17:44.598Z,90.00
2022-07-30T11:29:25.214Z,320.44
2022-07-30T11:30:23.456Z,225.00
2022-07-30T11:31:23.023Z,241.00
2022-07-30T11:32:23.008Z,0.00
2022-07-30T11:33:22.989Z,0.00
2022-07-30T11:34:25.681Z,360.00
2022-07-30T11:35:23.667Z,111.02
2022-07-30T11:36:24.299Z,90.00
2022-07-30T11:37:32.413Z,75.21
2022-07-30T11:38:23.105Z,317.51
2022-07-30T11:39:29.907Z,0.00
2022-07-30T11:40:25.964Z,0.00
2022-07-30T11:41:23.053Z,12.14
2022-07-30T11:42:23.085Z,45.00
2022-07-30T11:43:34.577Z,45.00
2022-07-30T11:44:23.066Z,46.06
2022-07-30T11:45:23.101Z,225.00
2022-07-30T11:46:28.732Z,213.57
2022-07-30T11:47:23.036Z,232.56
2022-07-30T11:48:23.094Z,1.60
2022-07-30T11:49:23.200Z,90.00
2022-07-30T11:50:23.659Z,61.96
2022-07-30T11:51:23.123Z,0.00
2022-07-30T11:52:23.127Z,0.00
2022-07-30T11:53:23.141Z,0.00
2022-07-30T11:54:23.077Z,0.00
2022-07-30T11:55:23.106Z,0.00
2022-07-30T11:56:23.147Z,0.00
2022-07-30T11:57:23.116Z,0.00
2022-07-30T11:58:23.144Z,0.00
2022-07-30T11:59:23.183Z,0.00
2022-07-30T12:00:23.219Z,0.00
2022-07-30T12:01:23.177Z,0.00
2022-07-30T12:02:23.270Z,0.00
2022-07-30T12:03:23.160Z,0.00
2022-07-30T12:04:23.221Z,360.00
2022-07-30T12:05:23.337Z,180.00
2022-07-30T12:06:23.224Z,180.00
2022-07-30T12:07:23.223Z,180.00
2022-07-30T12:08:36.110Z,180.00
2022-07-30T12:09:23.193Z,180.00
2022-07-30T12:10:26.686Z,180.00
2022-07-30T12:11:23.202Z,149.47
2022-07-30T12:12:23.214Z,90.00
2022-07-30T12:13:23.156Z,90.00
2022-07-30T12:14:23.199Z,90.00
2022-07-30T12:15:23.218Z,90.00
2022-07-30T12:16:23.229Z,90.00
2022-07-30T12:17:23.187Z,90.00
2022-07-30T12:18:26.743Z,90.00
2022-07-30T12:19:23.215Z,126.76
2022-07-30T12:20:23.367Z,180.00
2022-07-30T12:21:23.249Z,180.00
2022-07-30T12:22:23.696Z,180.00
2022-07-30T12:23:23.260Z,180.00
2022-07-30T12:24:23.241Z,180.00
2022-07-30T12:25:23.250Z,273.18
2022-07-30T12:26:23.194Z,315.00
2022-07-30T12:27:23.217Z,285.95
2022-07-30T12:28:23.270Z,180.00
2022-07-30T12:29:23.237Z,211.60
2022-07-30T12:30:23.294Z,225.00
2022-07-30T12:31:23.301Z,225.00
2022-07-30T12:32:23.223Z,225.00
2022-07-30T12:33:23.299Z,225.00
2022-07-30T12:34:23.304Z,225.00
2022-07-30T12:35:23.286Z,225.00
2022-07-30T12:36:23.256Z,225.00
2022-07-30T12:37:23.245Z,225.00
2022-07-30T12:38:23.305Z,225.00
2022-07-30T12:39:23.264Z,225.00
2022-07-30T12:40:23.336Z,185.52
2022-07-30T12:41:23.297Z,180.00
2022-07-30T12:42:23.309Z,180.00
2022-07-30T12:43:23.256Z,127.05
2022-07-30T12:44:23.251Z,90.00
2022-07-30T12:45:23.362Z,90.00
2022-07-30T12:46:23.293Z,90.00
2022-07-30T12:47:23.303Z,90.00
2022-07-30T12:48:23.355Z,90.00
2022-07-30T12:49:23.293Z,90.00
2022-07-30T12:50:23.454Z,90.00
2022-07-30T12:51:23.274Z,90.00
2022-07-30T12:52:28.237Z,90.00
2022-07-30T12:53:23.337Z,117.59
2022-07-30T12:54:23.345Z,136.64
2022-07-30T12:55:23.520Z,135.00
2022-07-30T12:56:23.264Z,135.00
2022-07-30T12:57:23.289Z,135.00
2022-07-30T12:58:23.354Z,93.39
2022-07-30T12:59:23.330Z,46.25
2022-07-30T13:00:23.439Z,315.00
2022-07-30T13:01:23.346Z,315.00
2022-07-30T13:02:23.357Z,315.00
2022-07-30T13:03:23.301Z,315.00
2022-07-30T13:04:23.363Z,315.00
2022-07-30T13:05:23.374Z,315.00
2022-07-30T13:06:23.364Z,315.00
2022-07-30T13:07:23.372Z,315.00
2022-07-30T13:08:23.363Z,315.00
2022-07-30T13:09:23.337Z,315.00
2022-07-30T13:10:27.190Z,315.00
2022-07-30T13:11:23.322Z,335.91
2022-07-30T13:12:23.403Z,0.00
2022-07-30T13:13:23.452Z,0.00
2022-07-30T13:14:23.582Z,8.21
2022-07-30T13:16:23.567Z,0.00
2022-07-30T13:17:23.325Z,0.00
2022-07-30T13:18:23.349Z,0.00
2022-07-30T13:19:23.344Z,0.00
2022-07-30T13:20:23.781Z,0.00
2022-07-30T13:21:23.427Z,0.00
2022-07-30T13:22:23.403Z,0.00
2022-07-30T13:23:23.423Z,0.00
2022-07-30T13:24:23.364Z,0.00
2022-07-30T13:25:23.460Z,0.00
2022-07-30T13:26:23.463Z,0.00
2022-07-30T13:27:23.422Z,0.00
2022-07-30T13:28:23.456Z,0.00
2022-07-30T13:29:23.345Z,0.00
2022-07-30T13:30:23.397Z,0.00
2022-07-30T13:31:23.394Z,0.00
2022-07-30T13:32:23.384Z,0.00
2022-07-30T13:33:23.382Z,0.00
2022-07-30T13:34:23.399Z,0.00
2022-07-30T13:35:23.448Z,0.00
2022-07-30T13:36:23.450Z,0.00
2022-07-30T13:37:23.771Z,0.00
2022-07-30T13:38:23.470Z,0.00
2022-07-30T13:39:23.393Z,0.00
2022-07-30T13:40:23.473Z,0.00
2022-07-30T13:41:23.459Z,0.00
2022-07-30T13:42:23.482Z,0.00
2022-07-30T13:43:23.523Z,0.00
2022-07-30T13:44:23.514Z,0.00
2022-07-30T13:45:23.432Z,11.49
2022-07-30T13:46:23.498Z,45.00
2022-07-30T13:47:25.787Z,45.00
2022-07-30T13:48:23.448Z,45.00
2022-07-30T13:49:23.530Z,45.00
2022-07-30T13:50:23.526Z,45.00
2022-07-30T13:51:23.488Z,45.00
2022-07-30T13:52:23.490Z,45.00
2022-07-30T13:53:23.546Z,45.00
2022-07-30T13:54:23.423Z,16.63
2022-07-30T13:55:23.640Z,0.00
2022-07-30T13:56:23.536Z,0.00
2022-07-30T13:57:23.618Z,0.00
2022-07-30T13:58:23.521Z,0.00
2022-07-30T13:59:23.721Z,334.87
2022-07-30T14:00:23.634Z,237.90
2022-07-30T14:01:23.555Z,225.00
2022-07-30T14:02:23.444Z,42.16
2022-07-30T14:03:23.480Z,0.00
2022-07-30T14:04:23.497Z,0.00
2022-07-30T14:05:23.592Z,0.00
2022-07-30T14:06:23.515Z,41.27
2022-07-30T14:07:23.482Z,88.22
2022-07-30T14:08:23.679Z,0.00
2022-07-30T14:09:23.794Z,0.00
2022-07-30T14:10:23.510Z,0.00
2022-07-30T14:11:23.558Z,0.00
2022-07-30T14:12:23.553Z,0.00
2022-07-30T14:13:23.718Z,0.00
2022-07-30T14:14:23.504Z,0.00
2022-07-30T14:15:23.536Z,0.00
2022-07-30T14:16:44.167Z,0.00
2022-07-30T14:17:23.592Z,0.00
2022-07-30T14:18:23.513Z,0.00
2022-07-30T14:19:24.552Z,0.00
2022-07-30T14:20:23.910Z,0.00
2022-07-30T14:21:23.720Z,0.00
2022-07-30T14:22:23.586Z,0.00
2022-07-30T14:23:23.661Z,0.00
2022-07-30T14:24:23.592Z,0.00
2022-07-30T14:25:23.680Z,0.00
2022-07-30T14:26:23.549Z,0.00
2022-07-30T14:27:23.536Z,23.29
2022-07-30T14:28:23.572Z,45.00
2022-07-30T14:29:23.596Z,83.93
2022-07-30T14:30:23.600Z,37.62
2022-07-30T14:31:23.579Z,0.00
2022-07-30T14:32:23.603Z,0.00
2022-07-30T14:33:23.583Z,0.00
2022-07-30T14:34:23.538Z,0.00
2022-07-30T14:35:23.554Z,347.90
2022-07-30T14:36:23.532Z,333.43
2022-07-30T14:37:23.595Z,10.30
2022-07-30T14:38:23.554Z,0.00
2022-07-30T14:39:26.894Z,360.00
2022-07-30T14:40:23.766Z,5.94
2022-07-30T14:41:23.734Z,45.00
2022-07-30T14:42:23.775Z,45.00
2022-07-30T14:43:23.698Z,225.00
2022-07-30T14:44:23.754Z,271.31
2022-07-30T14:45:23.820Z,0.00
2022-07-30T14:46:23.756Z,0.00
2022-07-30T14:47:23.759Z,0.00
2022-07-30T14:48:23.719Z,1.72
2022-07-30T14:49:23.847Z,0.00
2022-07-30T14:50:23.734Z,0.00
2022-07-30T14:51:26.628Z,0.00
2022-07-30T14:52:23.732Z,336.50
2022-07-30T14:53:23.726Z,315.00
2022-07-30T14:54:23.772Z,315.00
2022-07-30T14:55:23.737Z,315.00
2022-07-30T14:56:23.758Z,315.00
2022-07-30T14:57:23.809Z,304.52
2022-07-30T14:58:23.797Z,225.00
2022-07-30T14:59:24.109Z,225.13
2022-07-30T15:00:24.454Z,0.00
2022-07-30T15:01:23.814Z,0.00
2022-07-30T15:02:23.755Z,0.00
2022-07-30T15:03:25.820Z,0.00
2022-07-30T15:04:23.761Z,0.00
2022-07-30T15:05:23.768Z,0.00
2022-07-30T15:06:23.804Z,0.00
2022-07-30T15:07:23.775Z,0.00
2022-07-30T15:08:23.817Z,0.00
2022-07-30T15:09:23.845Z,0.00
2022-07-30T15:10:23.808Z,0.00
2022-07-30T15:11:23.809Z,0.00
2022-07-30T15:12:26.655Z,0.00
2022-07-30T15:13:23.912Z,0.00
2022-07-30T15:14:24.742Z,0.00
2022-07-30T15:15:24.209Z,0.00
2022-07-30T15:16:23.900Z,0.00
2022-07-30T15:17:23.889Z,0.00
2022-07-30T15:18:23.852Z,0.00
2022-07-30T15:19:23.810Z,0.00
2022-07-30T15:20:23.805Z,0.00
2022-07-30T15:21:23.833Z,0.00
2022-07-30T15:22:23.887Z,0.00
2022-07-30T15:23:23.861Z,0.00
2022-07-30T15:24:26.319Z,0.00
2022-07-30T15:25:24.179Z,0.00
2022-07-30T15:26:23.909Z,29.86
2022-07-30T15:27:31.844Z,45.00
2022-07-30T15:28:23.938Z,45.00
2022-07-30T15:29:23.876Z,45.00
2022-07-30T15:30:23.954Z,45.00
2022-07-30T15:31:23.940Z,45.00
2022-07-30T15:32:23.922Z,45.00
2022-07-30T15:33:23.883Z,45.00
2022-07-30T15:34:23.873Z,45.00
2022-07-30T15:35:23.924Z,45.00
2022-07-30T15:36:23.889Z,45.00
2022-07-30T15:37:23.896Z,45.00
2022-07-30T15:38:23.907Z,45.00
2022-07-30T15:39:23.971Z,45.00
2022-07-30T15:40:23.918Z,45.00
2022-07-30T15:41:23.884Z,45.00
2022-07-30T15:42:23.974Z,45.00
2022-07-30T15:43:23.966Z,45.00
2022-07-30T15:44:23.929Z,45.00
2022-07-30T15:45:23.937Z,45.00
2022-07-30T15:46:23.952Z,45.00
2022-07-30T15:47:23.954Z,45.00
2022-07-30T15:48:26.582Z,45.00
2022-07-30T15:49:24.078Z,45.00
2022-07-30T15:50:23.912Z,45.00
2022-07-30T15:51:23.960Z,45.00
2022-07-30T15:52:23.929Z,45.00
2022-07-30T15:53:24.003Z,45.00
2022-07-30T15:54:23.938Z,45.00
2022-07-30T15:55:23.944Z,18.92
2022-07-30T15:56:23.943Z,0.00
2022-07-30T15:57:24.015Z,0.00
2022-07-30T15:58:24.016Z,24.94
2022-07-30T15:59:23.956Z,315.00
2022-07-30T16:00:23.971Z,315.00
2022-07-30T16:01:23.971Z,315.00
2022-07-30T16:02:24.036Z,315.00
2022-07-30T16:03:23.938Z,353.11
2022-07-30T16:04:31.240Z,0.00
2022-07-30T16:05:24.007Z,360.00
2022-07-30T16:06:24.035Z,180.00
2022-07-30T16:07:23.970Z,180.00
2022-07-30T16:08:23.999Z,180.00
2022-07-30T16:09:23.976Z,120.82
2022-07-30T16:10:24.033Z,45.00
2022-07-30T16:11:23.967Z,45.00
2022-07-30T16:12:24.028Z,54.16
2022-07-30T16:13:24.035Z,90.00
2022-07-30T16:14:24.002Z,90.00
2022-07-30T16:15:23.998Z,90.00
2022-07-30T16:16:24.026Z,90.00
2022-07-30T16:17:24.040Z,57.58
2022-07-30T16:18:24.052Z,45.00
2022-07-30T16:19:24.060Z,45.00
2022-07-30T16:20:24.025Z,45.00
2022-07-30T16:21:24.120Z,45.00
2022-07-30T16:22:24.376Z,45.00
2022-07-30T16:23:24.080Z,45.00
2022-07-30T16:24:24.028Z,45.00
2022-07-30T16:25:24.071Z,45.00
2022-07-30T16:26:24.020Z,71.36
2022-07-30T16:27:23.965Z,225.00
